createdAt,value
2023-05-04T00:00:10.427Z,18.40
2023-05-04T00:05:33.013Z,17.80
2023-05-04T00:10:35.643Z,20.90
2023-05-04T00:15:38.182Z,19.80
2023-05-04T00:20:41.013Z,23.70
2023-05-04T00:25:43.575Z,17.20
2023-05-04T00:30:46.500Z,18.50
2023-05-04T00:35:49.079Z,22.10
2023-05-04T00:40:51.790Z,55.10
2023-05-04T00:45:54.393Z,47.60
2023-05-04T00:50:57.138Z,22.80
2023-05-04T00:55:59.733Z,16.10
2023-05-04T01:01:03.912Z,20.20
2023-05-04T01:06:30.346Z,23.20
2023-05-04T01:12:01.481Z,24.70
2023-05-04T01:17:06.007Z,22.00
2023-05-04T01:22:08.726Z,14.50
2023-05-04T01:27:19.287Z,16.10
2023-05-04T01:32:22.933Z,12.10
2023-05-04T01:37:26.014Z,11.70
2023-05-04T01:42:28.527Z,13.80
2023-05-04T01:47:31.678Z,12.30
2023-05-04T01:52:34.215Z,9.90
2023-05-04T01:57:36.775Z,10.90
2023-05-04T02:02:39.384Z,10.00
2023-05-04T02:07:41.978Z,12.00
2023-05-04T02:12:44.584Z,14.50
2023-05-04T02:17:47.113Z,15.80
2023-05-04T02:22:49.595Z,13.60
2023-05-04T02:27:52.105Z,11.40
2023-05-04T02:32:54.665Z,12.20
2023-05-04T02:37:57.197Z,10.70
2023-05-04T02:42:59.765Z,10.50
2023-05-04T02:48:02.385Z,6.50
2023-05-04T02:53:04.986Z,12.70
2023-05-04T02:58:07.583Z,6.30
2023-05-04T03:03:10.283Z,8.00
2023-05-04T03:08:13.043Z,11.50
2023-05-04T03:13:16.620Z,9.80
2023-05-04T03:18:19.232Z,8.40
2023-05-04T03:23:21.730Z,9.90
2023-05-04T03:28:24.304Z,15.70
2023-05-04T03:33:26.796Z,11.70
2023-05-04T03:38:29.328Z,10.90
2023-05-04T03:43:31.871Z,8.10
2023-05-04T03:48:34.464Z,8.00
2023-05-04T03:53:37.081Z,9.30
2023-05-04T03:58:39.637Z,8.70
2023-05-04T04:03:42.263Z,15.50
2023-05-04T04:08:44.877Z,14.30
2023-05-04T04:13:47.402Z,8.20
2023-05-04T04:18:49.981Z,8.10
2023-05-04T04:23:52.593Z,9.20
2023-05-04T04:28:55.215Z,13.00
2023-05-04T04:33:57.818Z,10.90
2023-05-04T04:39:00.843Z,13.80
2023-05-04T04:44:04.051Z,20.80
2023-05-04T04:49:07.263Z,12.50
2023-05-04T04:54:09.954Z,12.10
2023-05-04T04:59:13.947Z,12.10
2023-05-04T05:04:18.957Z,11.00
2023-05-04T05:09:21.469Z,9.40
2023-05-04T05:14:24.044Z,10.10
2023-05-04T05:19:26.611Z,9.90
2023-05-04T05:24:29.149Z,7.40
2023-05-04T05:29:32.156Z,7.90
2023-05-04T05:34:34.963Z,7.40
2023-05-04T05:39:37.478Z,6.00
2023-05-04T05:44:40.134Z,6.10
2023-05-04T05:49:44.764Z,8.20
2023-05-04T05:54:48.789Z,11.00
2023-05-04T05:59:51.395Z,7.50
2023-05-04T06:04:54.384Z,6.80
2023-05-04T06:09:57.224Z,8.50
2023-05-04T06:15:00.041Z,7.20
2023-05-04T06:20:02.732Z,8.70
2023-05-04T06:25:08.105Z,11.20
2023-05-04T06:30:11.888Z,6.40
2023-05-04T06:35:14.943Z,6.90
2023-05-04T06:40:20.529Z,7.70
2023-05-04T06:45:23.133Z,7.70
2023-05-04T06:50:25.665Z,6.20
2023-05-04T06:55:28.223Z,6.80
2023-05-04T07:00:32.129Z,7.90
2023-05-04T07:05:37.233Z,5.00
2023-05-04T07:10:40.122Z,7.90
2023-05-04T07:15:42.699Z,4.20
2023-05-04T07:20:45.374Z,4.00
2023-05-04T07:25:47.993Z,4.90
2023-05-04T07:30:51.207Z,6.50
2023-05-04T07:35:58.720Z,3.70
2023-05-04T07:41:01.387Z,4.40
2023-05-04T07:46:04.014Z,6.10
2023-05-04T07:51:11.698Z,3.80
2023-05-04T07:56:14.338Z,5.40
2023-05-04T08:01:17.103Z,4.80
2023-05-04T08:06:19.689Z,3.30
2023-05-04T08:11:22.197Z,4.30
2023-05-04T08:16:24.756Z,7.60
2023-05-04T08:21:27.948Z,7.90
2023-05-04T08:26:31.084Z,6.50
2023-05-04T08:31:36.753Z,4.20
2023-05-04T08:36:40.579Z,5.80
2023-05-04T08:41:43.605Z,5.00
2023-05-04T08:46:53.638Z,5.60
2023-05-04T08:52:00.691Z,3.50
2023-05-04T08:57:05.070Z,7.30
2023-05-04T09:02:12.011Z,4.00
2023-05-04T09:07:16.440Z,4.60
2023-05-04T09:12:19.287Z,6.40
2023-05-04T09:17:29.395Z,5.80
2023-05-04T09:22:32.008Z,4.40
2023-05-04T09:27:34.578Z,2.60
2023-05-04T09:32:46.467Z,4.80
2023-05-04T09:38:26.793Z,4.80
2023-05-04T09:43:38.713Z,4.20
2023-05-04T09:48:53.846Z,4.90
2023-05-04T09:54:00.780Z,6.40
2023-05-04T09:59:05.443Z,4.80
2023-05-04T10:04:08.170Z,5.70
2023-05-04T10:09:11.654Z,5.10
2023-05-04T10:14:14.569Z,3.30
2023-05-04T10:19:49.036Z,4.40
2023-05-04T10:25:19.215Z,4.30
2023-05-04T10:30:22.962Z,3.90
2023-05-04T10:35:27.615Z,4.60
2023-05-04T10:40:38.190Z,9.00
2023-05-04T10:45:41.784Z,6.40
2023-05-04T10:50:46.657Z,4.50
2023-05-04T10:55:51.573Z,4.10
2023-05-04T11:05:56.805Z,6.20
2023-05-04T11:11:06.782Z,7.60
2023-05-04T11:16:12.446Z,6.00
2023-05-04T11:21:25.767Z,6.40
2023-05-04T11:26:28.836Z,4.60
2023-05-04T11:31:31.554Z,5.50
2023-05-04T11:36:38.551Z,5.10
2023-05-04T11:41:42.941Z,3.20
2023-05-04T11:46:45.831Z,8.80
2023-05-04T11:51:48.578Z,6.00
2023-05-04T11:56:51.208Z,4.40
2023-05-04T12:01:53.990Z,4.50
2023-05-04T12:06:56.637Z,7.20
2023-05-04T12:11:59.316Z,6.10
2023-05-04T12:17:03.532Z,6.30
2023-05-04T12:22:06.086Z,8.40
2023-05-04T12:27:15.030Z,4.60
2023-05-04T12:32:18.337Z,6.90
2023-05-04T12:37:22.158Z,4.60
2023-05-04T12:42:26.486Z,8.60
2023-05-04T12:47:29.145Z,5.30
2023-05-04T12:52:31.687Z,5.60
2023-05-04T12:57:34.205Z,5.00
2023-05-04T13:02:37.780Z,6.60
2023-05-04T13:07:40.467Z,3.10
2023-05-04T13:12:45.443Z,5.20
2023-05-04T13:17:48.946Z,5.60
2023-05-04T13:22:52.247Z,6.10
2023-05-04T13:27:55.199Z,4.00
2023-05-04T13:32:57.818Z,6.00
2023-05-04T13:38:00.620Z,6.40
2023-05-04T13:43:04.464Z,5.10
2023-05-04T13:48:07.347Z,5.80
2023-05-04T13:53:12.923Z,9.50
2023-05-04T13:58:15.505Z,5.80
2023-05-04T14:03:20.498Z,8.90
2023-05-04T14:08:23.230Z,9.50
2023-05-04T14:13:25.868Z,6.00
2023-05-04T14:18:28.762Z,5.60
2023-05-04T14:23:31.414Z,6.60
2023-05-04T14:28:33.971Z,4.60
2023-05-04T14:33:37.233Z,8.40
2023-05-04T14:38:42.825Z,6.10
2023-05-04T14:43:45.729Z,6.60
2023-05-04T14:48:48.469Z,4.50
2023-05-04T14:53:51.404Z,5.10
2023-05-04T14:58:53.935Z,4.60
2023-05-04T15:03:56.767Z,4.70
2023-05-04T15:08:59.527Z,17.00
2023-05-04T15:14:02.235Z,10.40
2023-05-04T15:19:05.190Z,9.80
2023-05-04T15:24:09.257Z,5.70
2023-05-04T15:29:11.790Z,7.20
2023-05-04T15:34:16.825Z,5.40
2023-05-04T15:39:20.858Z,5.90
2023-05-04T15:44:24.209Z,7.10
2023-05-04T15:49:26.846Z,5.80
2023-05-04T15:54:30.085Z,5.30
2023-05-04T15:59:32.757Z,5.80
2023-05-04T16:04:35.887Z,4.40
2023-05-04T16:09:38.535Z,9.80
2023-05-04T16:14:41.492Z,6.50
2023-05-04T16:19:44.189Z,5.90
2023-05-04T16:24:46.766Z,5.80
2023-05-04T16:29:51.054Z,8.20
2023-05-04T16:34:53.564Z,7.50
2023-05-04T16:39:57.307Z,11.10
2023-05-04T16:45:02.096Z,6.70
2023-05-04T16:50:05.808Z,13.20
2023-05-04T16:55:11.815Z,6.60
2023-05-04T17:00:15.674Z,7.20
2023-05-04T17:05:19.459Z,7.10
2023-05-04T17:10:22.101Z,6.20
2023-05-04T17:15:24.675Z,9.50
2023-05-04T17:20:32.817Z,9.50
2023-05-04T17:25:35.629Z,8.90
2023-05-04T17:30:40.276Z,9.30
2023-05-04T17:35:42.820Z,11.60
2023-05-04T17:40:45.417Z,9.40
2023-05-04T17:45:48.012Z,6.90
2023-05-04T17:50:51.069Z,3.70
2023-05-04T17:55:53.617Z,4.50
2023-05-04T18:00:56.529Z,6.60
2023-05-04T18:05:59.050Z,6.20
2023-05-04T18:11:03.449Z,5.30
2023-05-04T18:16:06.362Z,5.70
2023-05-04T18:21:08.953Z,5.90
2023-05-04T18:26:18.200Z,7.20
2023-05-04T18:31:20.788Z,6.80
2023-05-04T18:36:24.422Z,8.20
2023-05-04T18:41:28.259Z,6.50
2023-05-04T18:46:30.816Z,5.20
2023-05-04T18:51:33.585Z,12.40
2023-05-04T18:56:36.518Z,7.50
2023-05-04T19:01:39.232Z,7.50
2023-05-04T19:06:42.104Z,9.60
2023-05-04T19:11:46.700Z,8.30
2023-05-04T19:16:49.219Z,5.30
2023-05-04T19:21:52.366Z,5.70
2023-05-04T19:26:55.882Z,9.50
2023-05-04T19:32:01.284Z,10.40
2023-05-04T19:37:08.585Z,7.50
2023-05-04T19:42:11.560Z,6.90
2023-05-04T19:47:14.061Z,7.60
2023-05-04T19:52:16.936Z,10.70
2023-05-04T19:57:20.974Z,9.20
2023-05-04T20:02:23.777Z,8.90
2023-05-04T20:07:26.474Z,7.30
2023-05-04T20:12:29.341Z,9.30
2023-05-04T20:17:33.392Z,9.30
2023-05-04T20:22:36.067Z,9.80
2023-05-04T20:27:39.459Z,9.70
2023-05-04T20:32:42.734Z,8.90
2023-05-04T20:37:45.463Z,8.70
2023-05-04T20:42:48.021Z,6.40
2023-05-04T20:47:50.695Z,4.10
2023-05-04T20:52:53.339Z,7.00
2023-05-04T20:57:56.332Z,5.40
2023-05-04T21:02:59.149Z,9.50
2023-05-04T21:08:01.756Z,6.40
2023-05-04T21:13:04.992Z,6.50
2023-05-04T21:18:07.637Z,4.70
2023-05-04T21:23:10.249Z,8.50
2023-05-04T21:28:12.786Z,7.40
2023-05-04T21:33:15.321Z,7.20
2023-05-04T21:38:19.563Z,7.30
2023-05-04T21:43:24.365Z,5.10
2023-05-04T21:48:26.970Z,8.10
2023-05-04T21:53:35.506Z,7.60
2023-05-04T21:58:40.699Z,7.80
2023-05-04T22:03:44.203Z,6.50
2023-05-04T22:08:46.757Z,8.40
2023-05-04T22:13:49.468Z,5.60
2023-05-04T22:18:52.160Z,6.50
2023-05-04T22:23:54.841Z,8.10
2023-05-04T22:28:57.397Z,6.00
2023-05-04T22:33:59.939Z,3.90
2023-05-04T22:39:02.621Z,5.00
2023-05-04T22:44:05.151Z,6.90
2023-05-04T22:49:07.770Z,5.20
2023-05-04T22:54:10.314Z,6.50
2023-05-04T22:59:13.002Z,5.20
2023-05-04T23:04:15.525Z,10.80
2023-05-04T23:09:18.320Z,7.10
2023-05-04T23:14:20.877Z,6.90
2023-05-04T23:19:23.409Z,6.80
2023-05-04T23:24:26.002Z,5.00
2023-05-04T23:29:28.523Z,4.70
2023-05-04T23:34:31.047Z,6.10
2023-05-04T23:39:33.553Z,6.70
2023-05-04T23:44:36.143Z,7.00
2023-05-04T23:49:38.616Z,5.50
2023-05-04T23:54:41.143Z,6.50
2023-05-04T23:59:43.644Z,7.40
